Time,TemperatureF,DewpointF,PressureIn,WindDirection,WindDirectionDegrees,WindSpeedMPH,WindSpeedGustMPH,Humidity,HourlyPrecipIn,Conditions,Clouds,dailyrainin,SoftwareType,DateUTC
2013-08-16 00:00:00,63.0,59.0,29.60,WNW,282,0.0,0.0,86,0.00,,,-99.99,,2013-08-16 07:00:00,
2013-08-16 00:21:00,62.0,58.0,29.61,WNW,282,0.0,0.0,86,0.00,,,-99.99,,2013-08-16 07:21:00,
2013-08-16 00:31:00,62.0,58.0,29.61,WNW,282,0.0,0.0,86,0.00,,,-99.99,,2013-08-16 07:31:00,
2013-08-16 00:52:00,62.0,58.0,29.61,WNW,282,0.0,0.0,86,0.00,,,-99.99,,2013-08-16 07:52:00,
2013-08-16 01:21:00,62.0,58.0,29.61,WNW,283,0.0,0.0,88,0.00,,,-99.99,,2013-08-16 08:21:00,
2013-08-16 01:32:00,62.0,58.0,29.61,WNW,283,0.0,0.0,88,0.00,,,-99.99,,2013-08-16 08:32:00,
2013-08-16 01:52:00,62.0,59.0,29.60,WNW,283,0.0,0.0,89,0.00,,,-99.99,,2013-08-16 08:52:00,
2013-08-16 02:01:00,62.0,59.0,29.60,WNW,283,0.0,0.0,89,0.00,,,-99.99,,2013-08-16 09:01:00,
2013-08-16 02:21:00,62.0,59.0,29.60,WNW,286,0.0,0.0,89,0.00,,,-99.99,,2013-08-16 09:21:00,
2013-08-16 02:32:00,62.0,59.0,29.60,WNW,286,0.0,0.0,89,0.00,,,-99.99,,2013-08-16 09:32:00,
2013-08-16 02:53:00,62.0,59.0,29.60,WNW,286,0.0,0.0,89,0.00,,,-99.99,,2013-08-16 09:53:00,
2013-08-16 03:03:00,62.0,59.0,29.60,WNW,286,0.0,0.0,89,0.00,,,-99.99,,2013-08-16 10:03:00,
2013-08-16 03:23:00,62.0,59.0,29.60,WNW,286,0.0,0.0,89,0.00,,,-99.99,,2013-08-16 10:23:00,
2013-08-16 03:33:00,62.0,59.0,29.60,WNW,286,0.0,0.0,89,0.00,,,-99.99,,2013-08-16 10:33:00,
2013-08-16 03:52:00,62.0,59.0,29.59,WNW,286,0.0,0.0,89,0.00,,,-99.99,,2013-08-16 10:52:00,
2013-08-16 04:02:00,62.0,59.0,29.59,WNW,286,0.0,0.0,89,0.00,,,-99.99,,2013-08-16 11:02:00,
2013-08-16 04:21:00,62.0,59.0,29.59,WNW,286,0.0,0.0,89,0.00,,,-99.99,,2013-08-16 11:21:00,
2013-08-16 04:32:00,62.0,59.0,29.59,WNW,286,0.0,0.0,89,0.00,,,-99.99,,2013-08-16 11:32:00,
2013-08-16 04:52:00,62.0,59.0,29.58,WNW,286,0.0,0.0,89,0.00,,,-99.99,,2013-08-16 11:52:00,
2013-08-16 05:02:00,62.0,59.0,29.58,WNW,286,0.0,0.0,89,0.00,,,-99.99,,2013-08-16 12:02:00,
2013-08-16 05:21:00,62.0,59.0,29.58,WNW,296,0.0,0.0,89,0.00,,,-99.99,,2013-08-16 12:21:00,
2013-08-16 05:31:00,62.0,59.0,29.58,WNW,296,0.0,0.0,89,0.00,,,-99.99,,2013-08-16 12:31:00,
2013-08-16 05:52:00,62.0,59.0,29.58,NNW,341,0.0,0.0,90,0.00,,,-99.99,,2013-08-16 12:52:00,
2013-08-16 06:21:00,62.0,59.0,29.58,NNW,341,0.0,0.0,90,0.00,,,-99.99,,2013-08-16 13:21:00,
2013-08-16 06:32:00,62.0,59.0,29.58,NNW,341,0.0,0.0,90,0.00,,,-99.99,,2013-08-16 13:32:00,
2013-08-16 06:53:00,62.0,59.0,29.59,NNW,341,0.0,0.0,89,0.00,,,-99.99,,2013-08-16 13:53:00,
2013-08-16 07:01:00,62.0,59.0,29.59,NNW,341,0.0,0.0,89,0.00,,,-99.99,,2013-08-16 14:01:00,
2013-08-16 07:21:00,62.0,59.0,29.60,NNW,341,0.0,0.0,89,0.00,,,-99.99,,2013-08-16 14:21:00,
2013-08-16 07:31:00,62.0,59.0,29.60,NNW,341,0.0,0.0,89,0.00,,,-99.99,,2013-08-16 14:31:00,
2013-08-16 07:52:00,62.0,59.0,29.60,NNW,341,0.0,0.0,89,0.00,,,-99.99,,2013-08-16 14:52:00,
2013-08-16 08:01:00,62.0,59.0,29.60,NNW,341,0.0,0.0,89,0.00,,,-99.99,,2013-08-16 15:01:00,
2013-08-16 08:22:00,62.0,59.0,29.61,NNW,341,0.0,0.0,89,0.00,,,-99.99,,2013-08-16 15:22:00,
2013-08-16 08:33:00,62.0,59.0,29.61,NNW,341,0.0,0.0,89,0.00,,,-99.99,,2013-08-16 15:33:00,
2013-08-16 08:56:00,62.0,59.0,29.62,NNW,341,0.0,0.0,89,0.00,,,-99.99,,2013-08-16 15:56:00,
2013-08-16 09:04:00,62.0,59.0,29.62,NNW,341,0.0,0.0,89,0.00,,,-99.99,,2013-08-16 16:04:00,
2013-08-16 09:23:00,63.0,59.0,29.62,NNW,341,0.0,0.0,88,0.00,,,-99.99,,2013-08-16 16:23:00,
2013-08-16 09:34:00,63.0,59.0,29.62,NNW,341,0.0,0.0,88,0.00,,,-99.99,,2013-08-16 16:34:00,
2013-08-16 09:57:00,65.0,60.0,29.61,NW,326,0.0,0.0,85,0.00,,,-99.99,,2013-08-16 16:57:00,
2013-08-16 10:03:00,65.0,60.0,29.61,NW,326,0.0,0.0,85,0.00,,,-99.99,,2013-08-16 17:03:00,
2013-08-16 10:28:00,67.0,60.0,29.61,NW,317,0.0,0.0,79,0.00,,,-99.99,,2013-08-16 17:28:00,
2013-08-16 10:34:00,67.0,60.0,29.61,NW,317,0.0,0.0,79,0.00,,,-99.99,,2013-08-16 17:34:00,
2013-08-16 11:00:00,71.0,61.0,29.61,SW,220,0.0,3.0,71,0.00,,,-99.99,,2013-08-16 18:00:00,
2013-08-16 11:06:00,71.0,61.0,29.61,SW,220,0.0,3.0,71,0.00,,,-99.99,,2013-08-16 18:06:00,
2013-08-16 11:15:00,71.0,61.0,29.61,SW,220,0.0,3.0,71,0.00,,,-99.99,,2013-08-16 18:15:00,
2013-08-16 11:27:00,71.0,61.0,29.61,SW,220,0.0,3.0,71,0.00,,,-99.99,,2013-08-16 18:27:00,
2013-08-16 11:31:00,77.0,63.0,29.61,SSW,202,2.0,8.0,61,0.00,,,-99.99,,2013-08-16 18:31:00,
2013-08-16 11:50:00,-999.0,-99.9,29.61,SSW,202,2.0,8.0,61,0.00,,,-99.99,,2013-08-16 18:50:00,
2013-08-16 12:03:00,77.0,63.0,29.61,SSW,202,2.0,8.0,61,0.00,,,-99.99,,2013-08-16 19:03:00,
2013-08-16 12:14:00,77.0,63.0,29.61,SSW,202,2.0,8.0,61,0.00,,,-99.99,,2013-08-16 19:14:00,
2013-08-16 12:25:00,77.0,63.0,29.61,SSW,202,2.0,8.0,61,0.00,,,-99.99,,2013-08-16 19:25:00,
2013-08-16 12:55:00,76.0,62.0,29.62,SSW,199,2.0,6.0,62,0.00,,,-99.99,,2013-08-16 19:55:00,
2013-08-16 13:02:00,76.0,62.0,29.62,SSW,199,2.0,6.0,62,0.00,,,-99.99,,2013-08-16 20:02:00,
2013-08-16 13:23:00,76.0,62.0,29.62,South,175,1.0,5.0,62,0.00,,,-99.99,,2013-08-16 20:23:00,
2013-08-16 13:30:00,-999.0,-99.9,29.62,SW,223,2.0,10.0,-999,0.00,,,-99.99,,2013-08-16 20:30:00,
2013-08-16 13:38:00,76.0,62.0,29.62,South,175,1.0,5.0,62,0.00,,,-99.99,,2013-08-16 20:38:00,
2013-08-16 13:52:00,76.0,62.0,29.62,SW,223,2.0,10.0,62,0.00,,,-99.99,,2013-08-16 20:52:00,
2013-08-16 14:01:00,76.0,62.0,29.62,SW,223,2.0,10.0,62,0.00,,,-99.99,,2013-08-16 21:01:00,
2013-08-16 14:11:00,76.0,62.0,29.62,SW,223,2.0,10.0,62,0.00,,,-99.99,,2013-08-16 21:11:00,
2013-08-16 14:25:00,76.0,62.0,29.62,SW,223,2.0,10.0,62,0.00,,,-99.99,,2013-08-16 21:25:00,
2013-08-16 15:52:00,78.0,61.0,29.60,SE,138,1.0,5.0,56,0.00,,,-99.99,,2013-08-16 22:52:00,
2013-08-16 16:09:00,78.0,61.0,29.60,SE,138,1.0,5.0,56,0.00,,,-99.99,,2013-08-16 23:09:00,
2013-08-16 16:23:00,77.0,61.0,29.60,SE,142,1.0,5.0,58,0.00,,,-99.99,,2013-08-16 23:23:00,
2013-08-16 16:32:00,77.0,61.0,29.60,SE,142,1.0,5.0,58,0.00,,,-99.99,,2013-08-16 23:32:00,
2013-08-16 16:52:00,76.0,60.0,29.59,South,189,0.0,5.0,58,0.00,,,-99.99,,2013-08-16 23:52:00,
2013-08-16 17:01:00,76.0,60.0,29.59,South,189,0.0,5.0,58,0.00,,,-99.99,,2013-08-17 00:01:00,
2013-08-16 17:21:00,76.0,60.0,29.58,SSE,159,0.0,2.0,58,0.00,,,-99.99,,2013-08-17 00:21:00,
2013-08-16 17:32:00,76.0,60.0,29.58,SSE,159,0.0,2.0,58,0.00,,,-99.99,,2013-08-17 00:32:00,
2013-08-16 17:52:00,76.0,60.0,29.58,South,170,0.0,2.0,57,0.00,,,-99.99,,2013-08-17 00:52:00,
2013-08-16 18:00:00,76.0,60.0,29.58,WSW,255,1.0,7.0,57,0.00,,,-99.99,,2013-08-17 01:00:00,
2013-08-16 18:01:00,76.0,60.0,29.58,South,170,0.0,2.0,57,0.00,,,-99.99,,2013-08-17 01:01:00,
2013-08-16 18:21:00,76.0,60.0,29.58,WSW,255,1.0,7.0,57,0.00,,,-99.99,,2013-08-17 01:21:00,
2013-08-16 18:32:00,76.0,60.0,29.58,WSW,255,1.0,7.0,57,0.00,,,-99.99,,2013-08-17 01:32:00,
2013-08-16 18:52:00,76.0,60.0,29.58,WSW,255,1.0,7.0,57,0.00,,,-99.99,,2013-08-17 01:52:00,
2013-08-16 19:00:00,72.0,59.0,29.58,West,279,1.0,4.0,64,0.00,,,-99.99,,2013-08-17 02:00:00,
2013-08-16 19:21:00,72.0,59.0,29.58,West,279,1.0,4.0,64,0.00,,,-99.99,,2013-08-17 02:21:00,
2013-08-16 19:32:00,72.0,59.0,29.58,West,279,1.0,4.0,64,0.00,,,-99.99,,2013-08-17 02:32:00,
2013-08-16 19:52:00,72.0,59.0,29.58,West,279,1.0,4.0,64,0.00,,,-99.99,,2013-08-17 02:52:00,
2013-08-16 20:22:00,67.0,58.0,29.58,WNW,286,0.0,2.0,73,0.00,,,-99.99,,2013-08-17 03:22:00,
2013-08-16 20:35:00,67.0,58.0,29.58,WNW,286,0.0,2.0,73,0.00,,,-99.99,,2013-08-17 03:35:00,
2013-08-16 20:53:00,65.0,57.0,29.59,WNW,286,0.0,0.0,76,0.00,,,-99.99,,2013-08-17 03:53:00,
2013-08-16 21:00:00,65.0,58.0,29.59,WNW,286,0.0,0.0,78,0.00,,,-99.99,,2013-08-17 04:00:00,
2013-08-16 21:03:00,65.0,57.0,29.59,WNW,286,0.0,0.0,76,0.00,,,-99.99,,2013-08-17 04:03:00,
2013-08-16 21:23:00,65.0,58.0,29.59,WNW,286,0.0,0.0,78,0.00,,,-99.99,,2013-08-17 04:23:00,
2013-08-16 21:32:00,65.0,58.0,29.59,WNW,286,0.0,0.0,78,0.00,,,-99.99,,2013-08-17 04:32:00,
2013-08-16 21:53:00,65.0,58.0,29.59,WNW,286,0.0,0.0,78,0.00,,,-99.99,,2013-08-17 04:53:00,
2013-08-16 22:23:00,63.0,57.0,29.61,WNW,286,0.0,0.0,80,0.00,,,-99.99,,2013-08-17 05:23:00,
2013-08-16 22:32:00,63.0,57.0,29.61,WNW,286,0.0,0.0,80,0.00,,,-99.99,,2013-08-17 05:32:00,
2013-08-16 22:52:00,63.0,57.0,29.61,WNW,286,0.0,0.0,81,0.00,,,-99.99,,2013-08-17 05:52:00,
2013-08-16 23:01:00,63.0,57.0,29.61,WNW,286,0.0,0.0,81,0.00,,,-99.99,,2013-08-17 06:01:00,
2013-08-16 23:21:00,62.0,56.0,29.61,WNW,286,0.0,0.0,82,0.00,,,-99.99,,2013-08-17 06:21:00,
2013-08-16 23:31:00,62.0,56.0,29.61,WNW,286,0.0,0.0,82,0.00,,,-99.99,,2013-08-17 06:31:00,
2013-08-16 23:52:00,62.0,57.0,29.61,WNW,286,0.0,0.0,83,0.00,,,-99.99,,2013-08-17 06:52:00,